createdAt,value
2023-01-31T00:01:56.913Z,2.41
2023-01-31T00:04:58.483Z,2.38
2023-01-31T00:08:01.568Z,2.37
2023-01-31T00:11:03.180Z,2.38
2023-01-31T00:14:06.441Z,2.39
2023-01-31T00:17:07.987Z,2.37
2023-01-31T00:20:10.841Z,2.32
2023-01-31T00:23:12.385Z,2.29
2023-01-31T00:26:22.868Z,2.24
2023-01-31T00:29:24.734Z,2.22
2023-01-31T00:32:27.022Z,2.18
2023-01-31T00:35:28.653Z,2.14
2023-01-31T00:38:30.369Z,2.10
2023-01-31T00:41:32.141Z,2.07
2023-01-31T00:44:33.679Z,2.04
2023-01-31T00:47:35.810Z,2.05
2023-01-31T00:50:38.102Z,2.02
2023-01-31T00:53:40.062Z,2.01
2023-01-31T00:56:41.613Z,2.01
2023-01-31T00:59:43.155Z,2.01
2023-01-31T01:02:44.707Z,2.03
2023-01-31T01:05:46.257Z,2.04
2023-01-31T01:08:48.170Z,2.03
2023-01-31T01:11:49.851Z,2.04
2023-01-31T01:14:51.448Z,2.07
2023-01-31T01:17:53.093Z,2.09
2023-01-31T01:20:54.623Z,2.10
2023-01-31T01:24:00.187Z,2.10
2023-01-31T01:27:01.827Z,2.10
2023-01-31T01:30:04.683Z,2.10
2023-01-31T01:33:06.261Z,2.09
2023-01-31T01:36:13.387Z,2.09
2023-01-31T01:39:15.005Z,2.10
2023-01-31T01:42:22.769Z,2.10
2023-01-31T01:45:24.549Z,2.13
2023-01-31T01:48:27.808Z,2.13
2023-01-31T01:51:32.687Z,2.12
2023-01-31T01:54:40.676Z,2.09
2023-01-31T01:57:45.029Z,2.08
2023-01-31T02:00:47.577Z,2.06
2023-01-31T02:03:51.759Z,2.05
2023-01-31T02:06:53.963Z,2.03
2023-01-31T02:10:09.851Z,2.03
2023-01-31T02:13:12.001Z,2.00
2023-01-31T02:16:13.847Z,1.99
2023-01-31T02:19:35.824Z,1.98
2023-01-31T02:23:08.018Z,1.98
2023-01-31T02:26:28.031Z,1.96
2023-01-31T02:29:53.709Z,1.95
2023-01-31T02:33:07.444Z,1.94
2023-01-31T02:36:08.923Z,1.94
2023-01-31T02:39:44.028Z,1.93
2023-01-31T02:43:12.581Z,1.92
2023-01-31T02:46:17.793Z,1.92
2023-01-31T02:49:34.903Z,1.92
2023-01-31T02:53:07.207Z,1.92
2023-01-31T02:56:26.077Z,1.91
2023-01-31T02:59:31.717Z,1.90
2023-01-31T03:02:33.322Z,1.89
2023-01-31T03:05:34.933Z,1.90
2023-01-31T03:08:38.807Z,1.91
2023-01-31T03:11:59.277Z,1.94
2023-01-31T03:15:11.601Z,1.95
2023-01-31T03:18:18.710Z,1.96
2023-01-31T03:21:30.712Z,1.95
2023-01-31T03:24:33.610Z,1.97
2023-01-31T03:27:36.323Z,1.98
2023-01-31T03:30:48.317Z,1.97
2023-01-31T03:33:57.970Z,1.99
2023-01-31T03:37:23.188Z,1.98
2023-01-31T03:40:30.583Z,1.99
2023-01-31T03:43:39.728Z,2.00
2023-01-31T03:46:46.353Z,1.99
2023-01-31T03:49:51.664Z,1.97
2023-01-31T03:53:17.222Z,1.95
2023-01-31T03:56:27.957Z,1.93
2023-01-31T03:59:35.496Z,1.92
2023-01-31T04:02:38.175Z,1.89
2023-01-31T04:05:40.936Z,1.88
2023-01-31T04:08:43.485Z,1.87
2023-01-31T04:11:48.930Z,1.87
2023-01-31T04:14:50.492Z,1.85
2023-01-31T04:17:52.058Z,1.83
2023-01-31T04:20:53.666Z,1.83
2023-01-31T04:23:55.249Z,1.83
2023-01-31T04:26:56.768Z,1.81
2023-01-31T04:29:58.381Z,1.81
2023-01-31T04:32:59.902Z,1.80
2023-01-31T04:36:01.648Z,1.80
2023-01-31T04:39:03.700Z,1.80
2023-01-31T04:42:05.278Z,1.79
2023-01-31T04:45:07.992Z,1.80
2023-01-31T04:48:10.021Z,1.81
2023-01-31T04:51:11.971Z,1.81
2023-01-31T04:54:13.739Z,1.82
2023-01-31T04:57:15.293Z,1.83
2023-01-31T05:00:17.420Z,1.83
2023-01-31T05:03:19.007Z,1.83
2023-01-31T05:06:20.789Z,1.85
2023-01-31T05:09:22.892Z,1.86
2023-01-31T05:12:24.460Z,1.85
2023-01-31T05:15:26.145Z,1.87
2023-01-31T05:18:27.692Z,1.87
2023-01-31T05:21:29.249Z,1.88
2023-01-31T05:24:32.964Z,1.89
2023-01-31T05:27:34.492Z,1.88
2023-01-31T05:30:37.306Z,1.87
2023-01-31T05:33:39.226Z,1.86
2023-01-31T05:36:44.641Z,1.85
2023-01-31T05:39:46.169Z,1.84
2023-01-31T05:42:55.405Z,1.83
2023-01-31T05:45:56.962Z,2.02
2023-01-31T05:48:58.511Z,2.44
2023-01-31T05:52:00.881Z,2.52
2023-01-31T05:55:02.835Z,2.49
2023-01-31T05:58:04.446Z,2.45
2023-01-31T06:01:06.039Z,2.40
2023-01-31T06:04:07.619Z,2.35
2023-01-31T06:07:09.194Z,2.30
2023-01-31T06:10:11.905Z,2.25
2023-01-31T06:13:13.478Z,2.22
2023-01-31T06:16:15.010Z,2.18
2023-01-31T06:19:16.614Z,2.15
2023-01-31T06:22:19.453Z,2.13
2023-01-31T06:25:21.413Z,2.09
2023-01-31T06:28:23.424Z,2.08
2023-01-31T06:31:25.311Z,2.05
2023-01-31T06:34:26.972Z,2.04
2023-01-31T06:37:28.555Z,2.06
2023-01-31T06:40:30.916Z,2.08
2023-01-31T06:43:32.847Z,2.09
2023-01-31T06:46:34.618Z,2.09
2023-01-31T06:49:36.360Z,2.09
2023-01-31T06:52:38.426Z,2.11
2023-01-31T06:55:40.121Z,2.12
2023-01-31T06:58:41.867Z,2.36
2023-01-31T07:01:43.444Z,2.40
2023-01-31T07:04:45.084Z,2.40
2023-01-31T07:07:47.483Z,2.37
2023-01-31T07:10:49.146Z,2.34
2023-01-31T07:13:50.746Z,2.32
2023-01-31T07:16:52.851Z,2.30
2023-01-31T07:19:54.525Z,2.30
2023-01-31T07:22:57.157Z,2.29
2023-01-31T07:25:58.746Z,2.29
2023-01-31T07:29:00.390Z,2.30
2023-01-31T07:32:02.013Z,2.31
2023-01-31T07:35:03.697Z,2.33
2023-01-31T07:38:05.267Z,2.34
2023-01-31T07:41:08.588Z,2.35
2023-01-31T07:44:12.941Z,2.36
2023-01-31T07:47:14.554Z,2.36
2023-01-31T07:50:16.243Z,2.37
2023-01-31T07:53:18.590Z,2.39
2023-01-31T07:56:21.865Z,2.42
2023-01-31T07:59:23.500Z,2.44
2023-01-31T08:02:43.380Z,2.46
2023-01-31T08:05:48.303Z,2.85
2023-01-31T08:08:49.872Z,3.33
2023-01-31T08:11:52.165Z,3.65
2023-01-31T08:14:53.671Z,3.88
2023-01-31T08:17:55.931Z,3.93
2023-01-31T08:20:58.664Z,3.88
2023-01-31T08:24:00.280Z,3.75
2023-01-31T08:27:01.904Z,3.63
2023-01-31T08:30:04.437Z,3.50
2023-01-31T08:33:06.042Z,3.41
2023-01-31T08:36:18.817Z,3.33
2023-01-31T08:39:20.427Z,3.26
2023-01-31T08:42:22.190Z,3.20
2023-01-31T08:45:24.331Z,3.16
2023-01-31T08:48:25.917Z,3.11
2023-01-31T08:51:27.993Z,3.09
2023-01-31T08:54:30.221Z,3.07
2023-01-31T08:57:32.414Z,3.04
2023-01-31T09:00:34.366Z,3.00
2023-01-31T09:03:36.378Z,2.99
2023-01-31T09:06:37.968Z,2.97
2023-01-31T09:09:39.600Z,2.96
2023-01-31T09:12:41.187Z,2.96
2023-01-31T09:15:42.738Z,2.97
2023-01-31T09:18:44.381Z,2.96
2023-01-31T09:21:47.267Z,2.95
2023-01-31T09:24:48.938Z,2.94
2023-01-31T09:27:53.178Z,2.96
2023-01-31T09:30:54.864Z,2.95
2023-01-31T09:33:56.454Z,2.97
2023-01-31T09:36:58.221Z,2.97
2023-01-31T09:39:59.726Z,2.99
2023-01-31T09:43:03.092Z,3.01
2023-01-31T09:46:11.215Z,3.02
2023-01-31T09:49:21.086Z,3.03
2023-01-31T09:52:23.090Z,3.04
2023-01-31T09:55:48.806Z,3.06
2023-01-31T09:58:57.786Z,3.09
2023-01-31T10:02:14.320Z,3.11
2023-01-31T10:05:22.055Z,3.13
2023-01-31T10:08:44.211Z,3.14
2023-01-31T10:11:58.022Z,3.17
2023-01-31T10:15:05.852Z,3.18
2023-01-31T10:18:28.047Z,3.21
2023-01-31T10:21:38.772Z,3.23
2023-01-31T10:24:49.203Z,3.25
2023-01-31T10:27:57.432Z,3.27
2023-01-31T10:31:05.760Z,3.29
2023-01-31T10:34:17.614Z,3.32
2023-01-31T10:37:37.663Z,3.35
2023-01-31T10:40:43.053Z,3.37
2023-01-31T10:43:57.614Z,3.37
2023-01-31T10:47:00.600Z,3.40
2023-01-31T10:50:14.581Z,3.42
2023-01-31T10:53:43.973Z,3.44
2023-01-31T10:56:47.992Z,3.44
2023-01-31T10:59:50.518Z,3.50
2023-01-31T11:02:52.356Z,3.70
2023-01-31T11:05:58.176Z,3.92
2023-01-31T11:09:01.936Z,3.95
2023-01-31T11:12:06.693Z,3.94
2023-01-31T11:15:16.993Z,3.92
2023-01-31T11:18:46.157Z,3.89
2023-01-31T11:21:50.770Z,3.86
2023-01-31T11:24:53.873Z,3.85
2023-01-31T11:28:03.696Z,3.85
2023-01-31T11:31:15.852Z,3.83
2023-01-31T11:34:24.816Z,3.82
2023-01-31T11:37:27.010Z,3.82
2023-01-31T11:40:34.916Z,3.82
2023-01-31T11:43:36.614Z,3.83
2023-01-31T11:47:12.826Z,3.83
2023-01-31T11:50:22.300Z,3.85
2023-01-31T11:53:47.865Z,3.85
2023-01-31T11:56:49.748Z,3.85
2023-01-31T11:59:55.062Z,3.86
2023-01-31T12:03:05.224Z,3.88
2023-01-31T12:06:10.664Z,3.89
2023-01-31T12:09:21.983Z,3.91
2023-01-31T12:12:33.992Z,3.93
2023-01-31T12:15:35.643Z,3.93
2023-01-31T12:18:40.013Z,3.95
2023-01-31T12:21:44.554Z,3.96
2023-01-31T12:24:51.970Z,3.98
2023-01-31T12:28:14.995Z,4.00
2023-01-31T12:31:32.587Z,4.01
2023-01-31T12:35:00.102Z,4.03
2023-01-31T12:38:32.072Z,4.04
2023-01-31T12:41:41.411Z,4.05
2023-01-31T12:44:48.374Z,4.06
2023-01-31T12:47:52.839Z,4.09
2023-01-31T12:51:03.693Z,4.10
2023-01-31T12:54:08.062Z,4.13
2023-01-31T12:57:43.377Z,4.16
2023-01-31T13:00:44.892Z,4.16
2023-01-31T13:04:20.776Z,4.17
2023-01-31T13:07:36.074Z,4.20
2023-01-31T13:10:51.986Z,4.22
2023-01-31T13:14:03.816Z,4.24
2023-01-31T13:17:10.652Z,4.24
2023-01-31T13:20:12.151Z,4.27
2023-01-31T13:23:22.307Z,4.28
2023-01-31T13:26:35.142Z,4.30
2023-01-31T13:29:49.234Z,4.32
2023-01-31T13:32:55.186Z,4.34
2023-01-31T13:36:19.159Z,4.36
2023-01-31T13:39:27.550Z,4.37
2023-01-31T13:42:29.900Z,4.38
2023-01-31T13:45:43.178Z,4.42
2023-01-31T13:48:56.130Z,4.43
2023-01-31T13:52:01.992Z,4.51
2023-01-31T13:55:09.809Z,4.65
2023-01-31T13:58:39.603Z,4.71
2023-01-31T14:01:48.369Z,4.75
2023-01-31T14:04:50.085Z,4.78
2023-01-31T14:08:26.285Z,4.81
2023-01-31T14:11:27.779Z,4.85
2023-01-31T14:14:41.779Z,4.88
2023-01-31T14:17:58.483Z,4.94
2023-01-31T14:21:28.881Z,4.98
2023-01-31T14:24:56.621Z,4.99
2023-01-31T14:27:58.104Z,4.99
2023-01-31T14:31:12.713Z,5.00
2023-01-31T14:34:21.157Z,5.01
2023-01-31T14:37:47.458Z,5.02
2023-01-31T14:41:16.855Z,5.02
2023-01-31T14:44:18.547Z,5.03
2023-01-31T14:47:42.084Z,5.06
2023-01-31T14:51:01.817Z,5.06
2023-01-31T14:54:27.588Z,5.09
2023-01-31T14:57:43.562Z,5.11
2023-01-31T15:00:54.792Z,5.11
2023-01-31T15:04:01.159Z,5.11
2023-01-31T15:07:02.800Z,5.12
2023-01-31T15:10:05.162Z,5.13
2023-01-31T15:13:32.629Z,5.16
2023-01-31T15:16:37.838Z,5.27
2023-01-31T15:20:05.450Z,5.42
2023-01-31T15:23:12.014Z,5.42
2023-01-31T15:26:16.309Z,5.40
2023-01-31T15:29:27.519Z,5.37
2023-01-31T15:32:42.773Z,5.33
2023-01-31T15:35:55.660Z,5.29
2023-01-31T15:39:01.501Z,5.23
2023-01-31T15:42:22.416Z,5.21
2023-01-31T15:45:26.424Z,5.16
2023-01-31T15:48:28.029Z,5.15
2023-01-31T15:51:29.739Z,5.12
2023-01-31T15:54:31.475Z,5.09
2023-01-31T15:57:41.569Z,5.06
2023-01-31T16:00:44.640Z,5.03
2023-01-31T16:03:58.467Z,4.99
2023-01-31T16:07:00.002Z,4.96
2023-01-31T16:10:02.113Z,5.20
2023-01-31T16:13:04.043Z,5.17
2023-01-31T16:16:10.468Z,5.16
2023-01-31T16:19:25.577Z,5.12
2023-01-31T16:22:30.642Z,5.09
2023-01-31T16:25:38.484Z,5.06
2023-01-31T16:29:06.143Z,5.03
2023-01-31T16:32:25.359Z,5.01
2023-01-31T16:35:29.246Z,5.00
2023-01-31T16:38:31.090Z,4.97
2023-01-31T16:41:50.592Z,4.95
2023-01-31T16:44:52.453Z,4.93
2023-01-31T16:47:55.290Z,4.92
2023-01-31T16:50:59.287Z,4.91
2023-01-31T16:54:12.813Z,4.90
2023-01-31T16:57:44.249Z,4.86
2023-01-31T17:00:46.076Z,4.80
2023-01-31T17:04:26.262Z,4.78
2023-01-31T17:07:32.404Z,4.78
2023-01-31T17:10:35.308Z,4.77
2023-01-31T17:13:36.869Z,4.76
2023-01-31T17:16:38.803Z,4.73
2023-01-31T17:19:40.555Z,4.71
2023-01-31T17:22:45.598Z,4.70
2023-01-31T17:25:51.934Z,4.67
2023-01-31T17:29:01.566Z,4.65
2023-01-31T17:32:04.065Z,4.63
2023-01-31T17:35:26.263Z,4.61
2023-01-31T17:38:27.858Z,4.59
2023-01-31T17:41:30.516Z,4.57
2023-01-31T17:44:32.178Z,4.56
2023-01-31T17:47:33.726Z,4.55
2023-01-31T17:50:35.273Z,4.57
2023-01-31T17:53:47.886Z,4.55
2023-01-31T17:56:52.281Z,4.57
2023-01-31T17:59:54.397Z,4.55
2023-01-31T18:02:56.073Z,4.53
2023-01-31T18:06:04.170Z,4.52
2023-01-31T18:09:08.572Z,4.51
2023-01-31T18:12:10.129Z,4.50
2023-01-31T18:15:12.068Z,4.47
2023-01-31T18:18:13.598Z,4.46
2023-01-31T18:21:17.384Z,4.45
2023-01-31T18:24:18.935Z,4.45
2023-01-31T18:27:20.570Z,4.44
2023-01-31T18:30:22.212Z,4.43
2023-01-31T18:33:24.046Z,4.41
2023-01-31T18:36:25.744Z,4.39
2023-01-31T18:39:27.312Z,4.37
2023-01-31T18:42:28.888Z,4.36
2023-01-31T18:45:30.430Z,4.33
2023-01-31T18:48:33.378Z,4.31
2023-01-31T18:51:34.962Z,4.28
2023-01-31T18:54:37.643Z,4.27
2023-01-31T18:57:39.435Z,4.25
2023-01-31T19:00:41.011Z,4.25
2023-01-31T19:03:43.403Z,4.24
2023-01-31T19:06:46.180Z,4.21
2023-01-31T19:09:47.714Z,4.17
2023-01-31T19:12:49.265Z,4.15
2023-01-31T19:15:50.817Z,4.36
2023-01-31T19:18:52.982Z,4.39
2023-01-31T19:21:54.911Z,4.37
2023-01-31T19:24:59.362Z,4.36
2023-01-31T19:28:01.165Z,4.35
2023-01-31T19:31:08.259Z,4.35
2023-01-31T19:34:10.181Z,4.35
2023-01-31T19:37:11.714Z,4.35
2023-01-31T19:40:13.673Z,4.34
2023-01-31T19:43:15.221Z,4.30
2023-01-31T19:46:17.773Z,4.28
2023-01-31T19:49:19.640Z,4.24
2023-01-31T19:52:21.235Z,4.23
2023-01-31T19:55:23.213Z,4.22
2023-01-31T19:58:31.297Z,4.22
2023-01-31T20:01:33.541Z,4.20
2023-01-31T20:04:35.129Z,4.20
2023-01-31T20:07:37.654Z,4.22
2023-01-31T20:10:39.290Z,4.20
2023-01-31T20:13:42.098Z,4.20
2023-01-31T20:16:43.647Z,4.17
2023-01-31T20:19:45.833Z,4.16
2023-01-31T20:22:47.408Z,4.16
2023-01-31T20:25:50.371Z,4.15
2023-01-31T20:28:51.989Z,4.13
2023-01-31T20:31:53.610Z,4.11
2023-01-31T20:34:55.216Z,4.09
2023-01-31T20:37:56.721Z,4.08
2023-01-31T20:40:58.276Z,4.03
2023-01-31T20:43:59.997Z,4.02
2023-01-31T20:47:01.584Z,4.01
2023-01-31T20:50:03.282Z,4.00
2023-01-31T20:53:04.894Z,3.99
2023-01-31T20:56:10.881Z,3.97
2023-01-31T20:59:12.493Z,3.95
2023-01-31T21:02:14.265Z,3.91
2023-01-31T21:05:17.744Z,3.89
2023-01-31T21:08:20.087Z,3.86
2023-01-31T21:11:21.990Z,3.82
2023-01-31T21:14:23.514Z,3.82
2023-01-31T21:17:39.150Z,3.78
2023-01-31T21:20:41.748Z,3.79
2023-01-31T21:23:43.308Z,3.80
2023-01-31T21:26:44.900Z,3.80
2023-01-31T21:29:46.678Z,3.81
2023-01-31T21:32:48.238Z,3.81
2023-01-31T21:35:49.752Z,3.81
2023-01-31T21:38:52.956Z,3.81
2023-01-31T21:42:12.744Z,3.81
2023-01-31T21:45:14.436Z,3.82
2023-01-31T21:48:32.061Z,3.81
2023-01-31T21:51:33.799Z,3.80
2023-01-31T21:54:35.713Z,3.80
2023-01-31T21:57:37.520Z,3.81
2023-01-31T22:00:39.126Z,3.82
2023-01-31T22:03:44.976Z,3.85
2023-01-31T22:06:48.585Z,3.83
2023-01-31T22:09:50.137Z,3.83
2023-01-31T22:12:51.666Z,3.82
2023-01-31T22:15:53.357Z,3.80
2023-01-31T22:18:55.145Z,3.81
2023-01-31T22:21:58.821Z,3.82
2023-01-31T22:25:00.384Z,3.81
2023-01-31T22:28:01.948Z,3.81
2023-01-31T22:31:04.833Z,3.80
2023-01-31T22:34:07.637Z,3.81
2023-01-31T22:37:09.271Z,3.80
2023-01-31T22:40:11.490Z,3.81
2023-01-31T22:43:15.760Z,3.80
2023-01-31T22:46:20.416Z,3.78
2023-01-31T22:49:21.987Z,3.76
2023-01-31T22:52:23.516Z,3.75
2023-01-31T22:55:25.072Z,3.74
2023-01-31T22:58:26.611Z,3.72
2023-01-31T23:01:31.032Z,3.70
2023-01-31T23:04:32.646Z,3.68
2023-01-31T23:07:34.268Z,3.66
2023-01-31T23:10:35.958Z,3.65
2023-01-31T23:13:38.410Z,3.65
2023-01-31T23:16:58.325Z,3.77
2023-01-31T23:20:00.176Z,3.76
2023-01-31T23:23:01.796Z,3.75
2023-01-31T23:26:04.534Z,3.72
2023-01-31T23:29:06.608Z,3.69
2023-01-31T23:32:08.236Z,3.67
2023-01-31T23:35:10.233Z,3.66
2023-01-31T23:38:11.938Z,3.64
2023-01-31T23:41:13.485Z,3.63
2023-01-31T23:44:15.157Z,3.59
2023-01-31T23:47:16.894Z,3.58
2023-01-31T23:50:18.624Z,3.57
2023-01-31T23:53:20.191Z,3.54
2023-01-31T23:56:21.768Z,3.50
2023-01-31T23:59:23.390Z,3.48
